Aviation Digital Data Service (ADDS)

Output produced by METARs form (0819 UTC 18 February 2019)
found at http://www.aviationweather.gov/metar/data/
 
METAR text: KPDX 180753Z 27004KT 10SM FEW040 01/M01 A3034 RMK AO2 SLP275 T00061011 400670000
Conditions at: KPDX (PORTLAND , OR, US) observed 0753 UTC 18 February 2019
Temperature: 0.6°C (33°F)
Dewpoint: -1.1°C (30°F) [RH = 88%]
Pressure (altimeter): 30.34 inches Hg (1027.5 mb)
[Sea-level pressure: 1027.5 mb]
Winds: from the W (270 degrees) at 5 MPH (4 knots; 2.1 m/s)
Visibility: 10 or more miles (16+ km)
Ceiling: at least 12,000 feet AGL
Clouds: few clouds at 4000 feet AGL
Weather: no significant weather observed at this time

METAR text: KPDX 180653Z 32003KT 10SM FEW040 FEW110 01/M02 A3033 RMK AO2 SLP271 T00061017
Conditions at: KPDX (PORTLAND , OR, US) observed 0653 UTC 18 February 2019
Temperature: 0.6°C (33°F)
Dewpoint: -1.7°C (29°F) [RH = 85%]
Pressure (altimeter): 30.33 inches Hg (1027.2 mb)
[Sea-level pressure: 1027.1 mb]
Winds: from the NW (320 degrees) at 3 MPH (3 knots; 1.5 m/s)
Visibility: 10 or more miles (16+ km)
Ceiling: at least 12,000 feet AGL
Clouds: few clouds at 4000 feet AGL
few clouds at 11000 feet AGL
Weather: no significant weather observed at this time

METAR text: KPDX 180553Z 29003KT 10SM FEW040 FEW110 02/M01 A3033 RMK AO2 SLP269 T00221006 10061 20017 53015
Conditions at: KPDX (PORTLAND , OR, US) observed 0553 UTC 18 February 2019
Temperature: 2.2°C (36°F)
Dewpoint: -0.6°C (31°F) [RH = 82%]
Pressure (altimeter): 30.33 inches Hg (1027.2 mb)
[Sea-level pressure: 1026.9 mb]
Winds: from the WNW (290 degrees) at 3 MPH (3 knots; 1.5 m/s)
Visibility: 10 or more miles (16+ km)
Ceiling: at least 12,000 feet AGL
Clouds: few clouds at 4000 feet AGL
few clouds at 11000 feet AGL
Weather: no significant weather observed at this time

METAR text: KPDX 180453Z 00000KT 10SM SCT025 BKN032 BKN048 04/00 A3031 RMK AO2 SLP262 T00390000
Conditions at: KPDX (PORTLAND , OR, US) observed 0453 UTC 18 February 2019
Temperature: 3.9°C (39°F)
Dewpoint: 0.0°C (32°F) [RH = 76%]
Pressure (altimeter): 30.31 inches Hg (1026.5 mb)
[Sea-level pressure: 1026.2 mb]
Winds: calm
Visibility: 10 or more miles (16+ km)
Ceiling: 3200 feet AGL
Clouds: scattered clouds at 2500 feet AGL
broken clouds at 3200 feet AGL
broken clouds at 4800 feet AGL
Weather: no significant weather observed at this time

METAR text: KPDX 180353Z 29004KT 10SM SCT040 04/00 A3029 RMK AO2 SLP257 T00390000
Conditions at: KPDX (PORTLAND , OR, US) observed 0353 UTC 18 February 2019
Temperature: 3.9°C (39°F)
Dewpoint: 0.0°C (32°F) [RH = 76%]
Pressure (altimeter): 30.29 inches Hg (1025.8 mb)
[Sea-level pressure: 1025.7 mb]
Winds: from the WNW (290 degrees) at 5 MPH (4 knots; 2.1 m/s)
Visibility: 10 or more miles (16+ km)
Ceiling: at least 12,000 feet AGL
Clouds: scattered clouds at 4000 feet AGL
Weather: no significant weather observed at this time

METAR text: KPDX 180253Z 31004KT 10SM BKN038 BKN047 04/00 A3028 RMK AO2 SLP254 T00440000 53017
Conditions at: KPDX (PORTLAND , OR, US) observed 0253 UTC 18 February 2019
Temperature: 4.4°C (40°F)
Dewpoint: 0.0°C (32°F) [RH = 73%]
Pressure (altimeter): 30.28 inches Hg (1025.5 mb)
[Sea-level pressure: 1025.4 mb]
Winds: from the NW (310 degrees) at 5 MPH (4 knots; 2.1 m/s)
Visibility: 10 or more miles (16+ km)
Ceiling: 3800 feet AGL
Clouds: broken clouds at 3800 feet AGL
broken clouds at 4700 feet AGL
Weather: no significant weather observed at this time

METAR text: KPDX 180153Z 33007KT 10SM SCT030 BKN039 06/00 A3026 RMK AO2 SLP247 T00560000
Conditions at: KPDX (PORTLAND , OR, US) observed 0153 UTC 18 February 2019
Temperature: 5.6°C (42°F)
Dewpoint: 0.0°C (32°F) [RH = 67%]
Pressure (altimeter): 30.26 inches Hg (1024.8 mb)
[Sea-level pressure: 1024.7 mb]
Winds: from the NNW (330 degrees) at 8 MPH (7 knots; 3.6 m/s)
Visibility: 10 or more miles (16+ km)
Ceiling: 3900 feet AGL
Clouds: scattered clouds at 3000 feet AGL
broken clouds at 3900 feet AGL
Weather: no significant weather observed at this time

METAR text: KPDX 180053Z 00000KT 10SM FEW025 BKN037 06/00 A3024 RMK AO2 SLP241 T00610000
Conditions at: KPDX (PORTLAND , OR, US) observed 0053 UTC 18 February 2019
Temperature: 6.1°C (43°F)
Dewpoint: 0.0°C (32°F) [RH = 65%]
Pressure (altimeter): 30.24 inches Hg (1024.1 mb)
[Sea-level pressure: 1024.1 mb]
Winds: calm
Visibility: 10 or more miles (16+ km)
Ceiling: 3700 feet AGL
Clouds: few clouds at 2500 feet AGL
broken clouds at 3700 feet AGL
Weather: no significant weather observed at this time

METAR text: KPDX 172353Z 35004KT 10SM FEW025 BKN038 06/00 A3023 RMK AO2 SLP237 T00610000 10067 20044 53010
Conditions at: KPDX (PORTLAND , OR, US) observed 2353 UTC 17 February 2019
Temperature: 6.1°C (43°F)
Dewpoint: 0.0°C (32°F) [RH = 65%]
Pressure (altimeter): 30.23 inches Hg (1023.8 mb)
[Sea-level pressure: 1023.7 mb]
Winds: from the N (350 degrees) at 5 MPH (4 knots; 2.1 m/s)
Visibility: 10 or more miles (16+ km)
Ceiling: 3800 feet AGL
Clouds: few clouds at 2500 feet AGL
broken clouds at 3800 feet AGL
Weather: no significant weather observed at this time

METAR text: KPDX 172253Z 31006KT 10SM FEW023 BKN031 OVC039 06/M01 A3022 RMK AO2 SLP233 T00611006
Conditions at: KPDX (PORTLAND , OR, US) observed 2253 UTC 17 February 2019
Temperature: 6.1°C (43°F)
Dewpoint: -0.6°C (31°F) [RH = 62%]
Pressure (altimeter): 30.22 inches Hg (1023.5 mb)
[Sea-level pressure: 1023.3 mb]
Winds: from the NW (310 degrees) at 7 MPH (6 knots; 3.1 m/s)
Visibility: 10 or more miles (16+ km)
Ceiling: 3100 feet AGL
Clouds: few clouds at 2300 feet AGL
broken clouds at 3100 feet AGL
overcast cloud deck at 3900 feet AGL
Weather: no significant weather observed at this time

METAR text: KPDX 172153Z 31007KT 10SM FEW023 BKN036 06/00 A3021 RMK AO2 SLP229 T00610000
Conditions at: KPDX (PORTLAND , OR, US) observed 2153 UTC 17 February 2019
Temperature: 6.1°C (43°F)
Dewpoint: 0.0°C (32°F) [RH = 65%]
Pressure (altimeter): 30.21 inches Hg (1023.1 mb)
[Sea-level pressure: 1022.9 mb]
Winds: from the NW (310 degrees) at 8 MPH (7 knots; 3.6 m/s)
Visibility: 10 or more miles (16+ km)
Ceiling: 3600 feet AGL
Clouds: few clouds at 2300 feet AGL
broken clouds at 3600 feet AGL
Weather: no significant weather observed at this time

METAR text: KPDX 172053Z 31008KT 10SM FEW023 BKN033 06/00 A3020 RMK AO2 SLP227 T00560000 51015
Conditions at: KPDX (PORTLAND , OR, US) observed 2053 UTC 17 February 2019
Temperature: 5.6°C (42°F)
Dewpoint: 0.0°C (32°F) [RH = 67%]
Pressure (altimeter): 30.20 inches Hg (1022.8 mb)
[Sea-level pressure: 1022.7 mb]
Winds: from the NW (310 degrees) at 9 MPH (8 knots; 4.1 m/s)
Visibility: 10 or more miles (16+ km)
Ceiling: 3300 feet AGL
Clouds: few clouds at 2300 feet AGL
broken clouds at 3300 feet AGL
Weather: no significant weather observed at this time

METAR text: KPDX 171953Z 30004KT 10SM SCT023 BKN032 05/00 A3019 RMK AO2 SLP224 T00500000
Conditions at: KPDX (PORTLAND , OR, US) observed 1953 UTC 17 February 2019
Temperature: 5.0°C (41°F)
Dewpoint: 0.0°C (32°F) [RH = 70%]
Pressure (altimeter): 30.19 inches Hg (1022.4 mb)
[Sea-level pressure: 1022.4 mb]
Winds: from the WNW (300 degrees) at 5 MPH (4 knots; 2.1 m/s)
Visibility: 10 or more miles (16+ km)
Ceiling: 3200 feet AGL
Clouds: scattered clouds at 2300 feet AGL
broken clouds at 3200 feet AGL
Weather: no significant weather observed at this time

METAR text: KPDX 171933Z 31005KT 10SM SCT023 BKN032 05/00 A3019 RMK AO2 T00500000
Conditions at: KPDX (PORTLAND , OR, US) observed 1933 UTC 17 February 2019
Temperature: 5.0°C (41°F)
Dewpoint: 0.0°C (32°F) [RH = 70%]
Pressure (altimeter): 30.19 inches Hg (1022.4 mb)
Winds: from the NW (310 degrees) at 6 MPH (5 knots; 2.6 m/s)
Visibility: 10 or more miles (16+ km)
Ceiling: 3200 feet AGL
Clouds: scattered clouds at 2300 feet AGL
broken clouds at 3200 feet AGL
Weather: no significant weather observed at this time

METAR text: KPDX 171853Z 00000KT 10SM SCT011 BKN022 04/01 A3017 RMK AO2 SLP218 T00440011
Conditions at: KPDX (PORTLAND , OR, US) observed 1853 UTC 17 February 2019
Temperature: 4.4°C (40°F)
Dewpoint: 1.1°C (34°F) [RH = 79%]
Pressure (altimeter): 30.17 inches Hg (1021.8 mb)
[Sea-level pressure: 1021.8 mb]
Winds: calm
Visibility: 10 or more miles (16+ km)
Ceiling: 2200 feet AGL
Clouds: scattered clouds at 1100 feet AGL
broken clouds at 2200 feet AGL
Weather: no significant weather observed at this time

METAR text: KPDX 171753Z 36003KT 10SM FEW008 BKN026 04/01 A3016 RMK AO2 SLP212 T00440011 10044 20028 51025
Conditions at: KPDX (PORTLAND , OR, US) observed 1753 UTC 17 February 2019
Temperature: 4.4°C (40°F)
Dewpoint: 1.1°C (34°F) [RH = 79%]
Pressure (altimeter): 30.16 inches Hg (1021.4 mb)
[Sea-level pressure: 1021.2 mb]
Winds: from the N (360 degrees) at 3 MPH (3 knots; 1.5 m/s)
Visibility: 10 or more miles (16+ km)
Ceiling: 2600 feet AGL
Clouds: few clouds at 800 feet AGL
broken clouds at 2600 feet AGL
Weather: no significant weather observed at this time

METAR text: KPDX 171653Z 00000KT 10SM FEW008 BKN021 03/01 A3014 RMK AO2 SLP205 T00330011
Conditions at: KPDX (PORTLAND , OR, US) observed 1653 UTC 17 February 2019
Temperature: 3.3°C (38°F)
Dewpoint: 1.1°C (34°F) [RH = 85%]
Pressure (altimeter): 30.14 inches Hg (1020.7 mb)
[Sea-level pressure: 1020.5 mb]
Winds: calm
Visibility: 10 or more miles (16+ km)
Ceiling: 2100 feet AGL
Clouds: few clouds at 800 feet AGL
broken clouds at 2100 feet AGL
Weather: no significant weather observed at this time

METAR text: KPDX 171634Z 00000KT 10SM FEW008 BKN021 03/01 A3013 RMK AO2 T00330011
Conditions at: KPDX (PORTLAND , OR, US) observed 1634 UTC 17 February 2019
Temperature: 3.3°C (38°F)
Dewpoint: 1.1°C (34°F) [RH = 85%]
Pressure (altimeter): 30.13 inches Hg (1020.4 mb)
Winds: calm
Visibility: 10 or more miles (16+ km)
Ceiling: 2100 feet AGL
Clouds: few clouds at 800 feet AGL
broken clouds at 2100 feet AGL
Weather: no significant weather observed at this time

METAR text: KPDX 171553Z 00000KT 10SM SCT013 BKN021 03/01 A3011 RMK AO2 SLP195 T00280011
Conditions at: KPDX (PORTLAND , OR, US) observed 1553 UTC 17 February 2019
Temperature: 2.8°C (37°F)
Dewpoint: 1.1°C (34°F) [RH = 89%]
Pressure (altimeter): 30.11 inches Hg (1019.7 mb)
[Sea-level pressure: 1019.5 mb]
Winds: calm
Visibility: 10 or more miles (16+ km)
Ceiling: 2100 feet AGL
Clouds: scattered clouds at 1300 feet AGL
broken clouds at 2100 feet AGL
Weather: no significant weather observed at this time

METAR text: KPDX 171453Z 00000KT 10SM SCT013 OVC024 03/01 A3008 RMK AO2 SLP186 T00280011 53018
Conditions at: KPDX (PORTLAND , OR, US) observed 1453 UTC 17 February 2019
Temperature: 2.8°C (37°F)
Dewpoint: 1.1°C (34°F) [RH = 89%]
Pressure (altimeter): 30.08 inches Hg (1018.7 mb)
[Sea-level pressure: 1018.6 mb]
Winds: calm
Visibility: 10 or more miles (16+ km)
Ceiling: 2400 feet AGL
Clouds: scattered clouds at 1300 feet AGL
overcast cloud deck at 2400 feet AGL
Weather: no significant weather observed at this time

METAR text: KPDX 171353Z 00000KT 10SM BKN018 OVC025 03/01 A3006 RMK AO2 SLP180 T00330011
Conditions at: KPDX (PORTLAND , OR, US) observed 1353 UTC 17 February 2019
Temperature: 3.3°C (38°F)
Dewpoint: 1.1°C (34°F) [RH = 85%]
Pressure (altimeter): 30.06 inches Hg (1018.0 mb)
[Sea-level pressure: 1018.0 mb]
Winds: calm
Visibility: 10 or more miles (16+ km)
Ceiling: 1800 feet AGL
Clouds: broken clouds at 1800 feet AGL
overcast cloud deck at 2500 feet AGL
Weather: no significant weather observed at this time

METAR text: KPDX 171344Z 00000KT 10SM OVC018 03/01 A3006 RMK AO2 T00280006
Conditions at: KPDX (PORTLAND , OR, US) observed 1344 UTC 17 February 2019
Temperature: 2.8°C (37°F)
Dewpoint: 0.6°C (33°F) [RH = 85%]
Pressure (altimeter): 30.06 inches Hg (1018.0 mb)
Winds: calm
Visibility: 10 or more miles (16+ km)
Ceiling: 1800 feet AGL
Clouds: overcast cloud deck at 1800 feet AGL
Weather: no significant weather observed at this time

METAR text: KPDX 171253Z 00000KT 10SM OVC010 03/01 A3004 RMK AO2 SLP173 T00280011
Conditions at: KPDX (PORTLAND , OR, US) observed 1253 UTC 17 February 2019
Temperature: 2.8°C (37°F)
Dewpoint: 1.1°C (34°F) [RH = 89%]
Pressure (altimeter): 30.04 inches Hg (1017.4 mb)
[Sea-level pressure: 1017.3 mb]
Winds: calm
Visibility: 10 or more miles (16+ km)
Ceiling: 1000 feet AGL
Clouds: overcast cloud deck at 1000 feet AGL
Weather: no significant weather observed at this time

METAR text: KPDX 171153Z 00000KT 10SM BKN008 OVC031 03/01 A3003 RMK AO2 SLP169 60000 70011 T00280011 10033 20011 53009
Conditions at: KPDX (PORTLAND , OR, US) observed 1153 UTC 17 February 2019
Temperature: 2.8°C (37°F)
Dewpoint: 1.1°C (34°F) [RH = 89%]
Pressure (altimeter): 30.03 inches Hg (1017.0 mb)
[Sea-level pressure: 1016.9 mb]
Winds: calm
Visibility: 10 or more miles (16+ km)
Ceiling: 800 feet AGL
Clouds: broken clouds at 800 feet AGL
overcast cloud deck at 3100 feet AGL
Weather: no significant weather observed at this time

METAR text: KPDX 171053Z 16005KT 7SM BKN008 OVC012 02/01 A3002 RMK AO2 SLP165 T00220011
Conditions at: KPDX (PORTLAND , OR, US) observed 1053 UTC 17 February 2019
Temperature: 2.2°C (36°F)
Dewpoint: 1.1°C (34°F) [RH = 92%]
Pressure (altimeter): 30.02 inches Hg (1016.7 mb)
[Sea-level pressure: 1016.5 mb]
Winds: from the SSE (160 degrees) at 6 MPH (5 knots; 2.6 m/s)
Visibility: 7 miles (11 km)
Ceiling: 800 feet AGL
Clouds: broken clouds at 800 feet AGL
overcast cloud deck at 1200 feet AGL
Weather: no significant weather observed at this time

METAR text: KPDX 171028Z 09005KT 5SM BR FEW008 BKN012 OVC050 02/01 A3002 RMK AO2 T00170006
Conditions at: KPDX (PORTLAND , OR, US) observed 1028 UTC 17 February 2019
Temperature: 1.7°C (35°F)
Dewpoint: 0.6°C (33°F) [RH = 92%]
Pressure (altimeter): 30.02 inches Hg (1016.7 mb)
Winds: from the E (90 degrees) at 6 MPH (5 knots; 2.6 m/s)
Visibility: 5 miles ( 8 km)
Ceiling: 1200 feet AGL
Clouds: few clouds at 800 feet AGL
broken clouds at 1200 feet AGL
overcast cloud deck at 5000 feet AGL
Weather: BR  (mist)

METAR text: KPDX 170953Z 09006KT 6SM BR SCT050 01/00 A3001 RMK AO2 SLP161 T00110000
Conditions at: KPDX (PORTLAND , OR, US) observed 0953 UTC 17 February 2019
Temperature: 1.1°C (34°F)
Dewpoint: 0.0°C (32°F) [RH = 92%]
Pressure (altimeter): 30.01 inches Hg (1016.3 mb)
[Sea-level pressure: 1016.1 mb]
Winds: from the E (90 degrees) at 7 MPH (6 knots; 3.1 m/s)
Visibility: 6 miles (10 km)
Ceiling: at least 12,000 feet AGL
Clouds: scattered clouds at 5000 feet AGL
Weather: BR  (mist)

METAR text: KPDX 170853Z 00000KT 10SM FEW010 SCT017 BKN036 03/01 A3000 RMK AO2 RAB0754E00 SLP159 P0000 60000 T00280011 53010
Conditions at: KPDX (PORTLAND , OR, US) observed 0853 UTC 17 February 2019
Temperature: 2.8°C (37°F)
Dewpoint: 1.1°C (34°F) [RH = 89%]
Pressure (altimeter): 30.00 inches Hg (1016.0 mb)
[Sea-level pressure: 1015.9 mb]
Winds: calm
Visibility: 10 or more miles (16+ km)
Ceiling: 3600 feet AGL
Clouds: few clouds at 1000 feet AGL
scattered clouds at 1700 feet AGL
broken clouds at 3600 feet AGL
Weather: no significant weather observed at this time

METAR text: KPDX 170753Z 00000KT 9SM SCT023 BKN030 OVC041 03/02 A2999 RMK AO2 SLP155 T00280017 400670022
Conditions at: KPDX (PORTLAND , OR, US) observed 0753 UTC 17 February 2019
Temperature: 2.8°C (37°F)
Dewpoint: 1.7°C (35°F) [RH = 92%]
Pressure (altimeter): 29.99 inches Hg (1015.7 mb)
[Sea-level pressure: 1015.5 mb]
Winds: calm
Visibility: 9 miles (14 km)
Ceiling: 3000 feet AGL
Clouds: scattered clouds at 2300 feet AGL
broken clouds at 3000 feet AGL
overcast cloud deck at 4100 feet AGL
Weather: no significant weather observed at this time

METAR text: KPDX 170653Z 00000KT 10SM SCT009 BKN019 OVC028 03/02 A2998 RMK AO2 SLP152 T00330017
Conditions at: KPDX (PORTLAND , OR, US) observed 0653 UTC 17 February 2019
Temperature: 3.3°C (38°F)
Dewpoint: 1.7°C (35°F) [RH = 89%]
Pressure (altimeter): 29.98 inches Hg (1015.3 mb)
[Sea-level pressure: 1015.2 mb]
Winds: calm
Visibility: 10 or more miles (16+ km)
Ceiling: 1900 feet AGL
Clouds: scattered clouds at 900 feet AGL
broken clouds at 1900 feet AGL
overcast cloud deck at 2800 feet AGL
Weather: no significant weather observed at this time

METAR text: KPDX 170553Z 11005KT 10SM SCT009 OVC019 02/01 A2997 RMK AO2 SLP149 60002 T00220006 10067 20022 53012
Conditions at: KPDX (PORTLAND , OR, US) observed 0553 UTC 17 February 2019
Temperature: 2.2°C (36°F)
Dewpoint: 0.6°C (33°F) [RH = 89%]
Pressure (altimeter): 29.97 inches Hg (1015.0 mb)
[Sea-level pressure: 1014.9 mb]
Winds: from the ESE (110 degrees) at 6 MPH (5 knots; 2.6 m/s)
Visibility: 10 or more miles (16+ km)
Ceiling: 1900 feet AGL
Clouds: scattered clouds at 900 feet AGL
overcast cloud deck at 1900 feet AGL
Weather: no significant weather observed at this time

METAR text: KPDX 170542Z 11004KT 10SM SCT009 OVC019 03/01 A2997 RMK AO2 T00280011
Conditions at: KPDX (PORTLAND , OR, US) observed 0542 UTC 17 February 2019
Temperature: 2.8°C (37°F)
Dewpoint: 1.1°C (34°F) [RH = 89%]
Pressure (altimeter): 29.97 inches Hg (1015.0 mb)
Winds: from the ESE (110 degrees) at 5 MPH (4 knots; 2.1 m/s)
Visibility: 10 or more miles (16+ km)
Ceiling: 1900 feet AGL
Clouds: scattered clouds at 900 feet AGL
overcast cloud deck at 1900 feet AGL
Weather: no significant weather observed at this time

METAR text: KPDX 170513Z 00000KT 10SM BKN009 BKN017 OVC045 03/01 A2996 RMK AO2 T00330011
Conditions at: KPDX (PORTLAND , OR, US) observed 0513 UTC 17 February 2019
Temperature: 3.3°C (38°F)
Dewpoint: 1.1°C (34°F) [RH = 85%]
Pressure (altimeter): 29.96 inches Hg (1014.6 mb)
Winds: calm
Visibility: 10 or more miles (16+ km)
Ceiling: 900 feet AGL
Clouds: broken clouds at 900 feet AGL
broken clouds at 1700 feet AGL
overcast cloud deck at 4500 feet AGL
Weather: no significant weather observed at this time

METAR text: KPDX 170453Z 05003KT 10SM BKN020 OVC050 03/01 A2996 RMK AO2 SLP144 T00330011
Conditions at: KPDX (PORTLAND , OR, US) observed 0453 UTC 17 February 2019
Temperature: 3.3°C (38°F)
Dewpoint: 1.1°C (34°F) [RH = 85%]
Pressure (altimeter): 29.96 inches Hg (1014.6 mb)
[Sea-level pressure: 1014.4 mb]
Winds: from the NE (50 degrees) at 3 MPH (3 knots; 1.5 m/s)
Visibility: 10 or more miles (16+ km)
Ceiling: 2000 feet AGL
Clouds: broken clouds at 2000 feet AGL
overcast cloud deck at 5000 feet AGL
Weather: no significant weather observed at this time

METAR text: KPDX 170406Z 06004KT 10SM SCT021 BKN029 OVC040 04/02 A2995 RMK AO2 T00390022
Conditions at: KPDX (PORTLAND , OR, US) observed 0406 UTC 17 February 2019
Temperature: 3.9°C (39°F)
Dewpoint: 2.2°C (36°F) [RH = 89%]
Pressure (altimeter): 29.95 inches Hg (1014.3 mb)
Winds: from the ENE (60 degrees) at 5 MPH (4 knots; 2.1 m/s)
Visibility: 10 or more miles (16+ km)
Ceiling: 2900 feet AGL
Clouds: scattered clouds at 2100 feet AGL
broken clouds at 2900 feet AGL
overcast cloud deck at 4000 feet AGL
Weather: no significant weather observed at this time

METAR text: KPDX 170353Z 09005KT 10SM FEW029 BKN040 OVC100 04/02 A2994 RMK AO2 RAE14 SLP139 P0000 T00390022
Conditions at: KPDX (PORTLAND , OR, US) observed 0353 UTC 17 February 2019
Temperature: 3.9°C (39°F)
Dewpoint: 2.2°C (36°F) [RH = 89%]
Pressure (altimeter): 29.94 inches Hg (1014.0 mb)
[Sea-level pressure: 1013.9 mb]
Winds: from the E (90 degrees) at 6 MPH (5 knots; 2.6 m/s)
Visibility: 10 or more miles (16+ km)
Ceiling: 4000 feet AGL
Clouds: few clouds at 2900 feet AGL
broken clouds at 4000 feet AGL
overcast cloud deck at 10000 feet AGL
Weather: no significant weather observed at this time

METAR text: KPDX 170311Z 10006KT 10SM -RA SCT021 BKN033 BKN050 04/02 A2994 RMK AO2 P0000 T00390022
Conditions at: KPDX (PORTLAND , OR, US) observed 0311 UTC 17 February 2019
Temperature: 3.9°C (39°F)
Dewpoint: 2.2°C (36°F) [RH = 89%]
Pressure (altimeter): 29.94 inches Hg (1014.0 mb)
Winds: from the E (100 degrees) at 7 MPH (6 knots; 3.1 m/s)
Visibility: 10 or more miles (16+ km)
Ceiling: 3300 feet AGL
Clouds: scattered clouds at 2100 feet AGL
broken clouds at 3300 feet AGL
broken clouds at 5000 feet AGL
Weather: -RA  (light rain)

METAR text: KPDX 170253Z 10007KT 10SM -RA BKN021 BKN035 OVC050 04/02 A2994 RMK AO2 RAB38 SLP137 P0001 60002 T00390022 51002
Conditions at: KPDX (PORTLAND , OR, US) observed 0253 UTC 17 February 2019
Temperature: 3.9°C (39°F)
Dewpoint: 2.2°C (36°F) [RH = 89%]
Pressure (altimeter): 29.94 inches Hg (1014.0 mb)
[Sea-level pressure: 1013.7 mb]
Winds: from the E (100 degrees) at 8 MPH (7 knots; 3.6 m/s)
Visibility: 10 or more miles (16+ km)
Ceiling: 2100 feet AGL
Clouds: broken clouds at 2100 feet AGL
broken clouds at 3500 feet AGL
overcast cloud deck at 5000 feet AGL
Weather: -RA  (light rain)

METAR text: KPDX 170241Z 11005KT 8SM -RA BKN021 BKN035 OVC050 04/02 A2994 RMK AO2 RAB38 P0001 T00390022
Conditions at: KPDX (PORTLAND , OR, US) observed 0241 UTC 17 February 2019
Temperature: 3.9°C (39°F)
Dewpoint: 2.2°C (36°F) [RH = 89%]
Pressure (altimeter): 29.94 inches Hg (1014.0 mb)
Winds: from the ESE (110 degrees) at 6 MPH (5 knots; 2.6 m/s)
Visibility: 8 miles (13 km)
Ceiling: 2100 feet AGL
Clouds: broken clouds at 2100 feet AGL
broken clouds at 3500 feet AGL
overcast cloud deck at 5000 feet AGL
Weather: -RA  (light rain)

METAR text: KPDX 170153Z 12005KT 10SM SCT025 SCT050 BKN130 BKN250 04/02 A2994 RMK AO2 SLP137 T00440022
Conditions at: KPDX (PORTLAND , OR, US) observed 0153 UTC 17 February 2019
Temperature: 4.4°C (40°F)
Dewpoint: 2.2°C (36°F) [RH = 86%]
Pressure (altimeter): 29.94 inches Hg (1014.0 mb)
[Sea-level pressure: 1013.7 mb]
Winds: from the ESE (120 degrees) at 6 MPH (5 knots; 2.6 m/s)
Visibility: 10 or more miles (16+ km)
Ceiling: 13000 feet AGL
Clouds: scattered clouds at 2500 feet AGL
scattered clouds at 5000 feet AGL
broken clouds at 13000 feet AGL
broken clouds at 25000 feet AGL
Weather: no significant weather observed at this time

METAR text: KPDX 170053Z 00000KT 10SM FEW025 BKN033 OVC100 06/03 A2993 RMK AO2 RAE49 SLP136 P0001 T00610028
Conditions at: KPDX (PORTLAND , OR, US) observed 0053 UTC 17 February 2019
Temperature: 6.1°C (43°F)
Dewpoint: 2.8°C (37°F) [RH = 79%]
Pressure (altimeter): 29.93 inches Hg (1013.6 mb)
[Sea-level pressure: 1013.6 mb]
Winds: calm
Visibility: 10 or more miles (16+ km)
Ceiling: 3300 feet AGL
Clouds: few clouds at 2500 feet AGL
broken clouds at 3300 feet AGL
overcast cloud deck at 10000 feet AGL
Weather: no significant weather observed at this time

METAR text: KPDX 170039Z 00000KT 10SM -RA SCT025 OVC035 06/02 A2993 RMK AO2 P0001 T00560022
Conditions at: KPDX (PORTLAND , OR, US) observed 0039 UTC 17 February 2019
Temperature: 5.6°C (42°F)
Dewpoint: 2.2°C (36°F) [RH = 79%]
Pressure (altimeter): 29.93 inches Hg (1013.6 mb)
Winds: calm
Visibility: 10 or more miles (16+ km)
Ceiling: 3500 feet AGL
Clouds: scattered clouds at 2500 feet AGL
overcast cloud deck at 3500 feet AGL
Weather: -RA  (light rain)

METAR text: KPDX 170017Z 00000KT 10SM -RA BKN026 OVC034 06/03 A2993 RMK AO2 P0000 T00610028
Conditions at: KPDX (PORTLAND , OR, US) observed 0017 UTC 17 February 2019
Temperature: 6.1°C (43°F)
Dewpoint: 2.8°C (37°F) [RH = 79%]
Pressure (altimeter): 29.93 inches Hg (1013.6 mb)
Winds: calm
Visibility: 10 or more miles (16+ km)
Ceiling: 2600 feet AGL
Clouds: broken clouds at 2600 feet AGL
overcast cloud deck at 3400 feet AGL
Weather: -RA  (light rain)

METAR text: KPDX 162353Z 28003KT 10SM -RA SCT027 BKN045 OVC075 07/02 A2993 RMK AO2 RAE28B50 SLP135 P0000 60008 T00670022 10067 20044 53014
Conditions at: KPDX (PORTLAND , OR, US) observed 2353 UTC 16 February 2019
Temperature: 6.7°C (44°F)
Dewpoint: 2.2°C (36°F) [RH = 73%]
Pressure (altimeter): 29.93 inches Hg (1013.6 mb)
[Sea-level pressure: 1013.5 mb]
Winds: from the W (280 degrees) at 3 MPH (3 knots; 1.5 m/s)
Visibility: 10 or more miles (16+ km)
Ceiling: 4500 feet AGL
Clouds: scattered clouds at 2700 feet AGL
broken clouds at 4500 feet AGL
overcast cloud deck at 7500 feet AGL
Weather: -RA  (light rain)

METAR text: KPDX 162253Z 26008KT 10SM -RA SCT021 BKN034 OVC050 06/04 A2991 RMK AO2 SLP129 P0003 T00610039
Conditions at: KPDX (PORTLAND , OR, US) observed 2253 UTC 16 February 2019
Temperature: 6.1°C (43°F)
Dewpoint: 3.9°C (39°F) [RH = 86%]
Pressure (altimeter): 29.91 inches Hg (1013.0 mb)
[Sea-level pressure: 1012.9 mb]
Winds: from the W (260 degrees) at 9 MPH (8 knots; 4.1 m/s)
Visibility: 10 or more miles (16+ km)
Ceiling: 3400 feet AGL
Clouds: scattered clouds at 2100 feet AGL
broken clouds at 3400 feet AGL
overcast cloud deck at 5000 feet AGL
Weather: -RA  (light rain)

METAR text: KPDX 162153Z 24006KT 6SM -RA BR FEW009 BKN018 OVC025 06/04 A2990 RMK AO2 SLP125 P0004 T00560044
Conditions at: KPDX (PORTLAND , OR, US) observed 2153 UTC 16 February 2019
Temperature: 5.6°C (42°F)
Dewpoint: 4.4°C (40°F) [RH = 92%]
Pressure (altimeter): 29.90 inches Hg (1012.6 mb)
[Sea-level pressure: 1012.5 mb]
Winds: from the WSW (240 degrees) at 7 MPH (6 knots; 3.1 m/s)
Visibility: 6 miles (10 km)
Ceiling: 1800 feet AGL
Clouds: few clouds at 900 feet AGL
broken clouds at 1800 feet AGL
overcast cloud deck at 2500 feet AGL
Weather: -RA BR  (light rain, mist)

METAR text: KPDX 162053Z 19006KT 10SM -RA SCT009 BKN015 OVC034 07/06 A2989 RMK AO2 SLP121 P0000 60001 T00670061 50004
Conditions at: KPDX (PORTLAND , OR, US) observed 2053 UTC 16 February 2019
Temperature: 6.7°C (44°F)
Dewpoint: 6.1°C (43°F) [RH = 96%]
Pressure (altimeter): 29.89 inches Hg (1012.3 mb)
[Sea-level pressure: 1012.1 mb]
Winds: from the S (190 degrees) at 7 MPH (6 knots; 3.1 m/s)
Visibility: 10 or more miles (16+ km)
Ceiling: 1500 feet AGL
Clouds: scattered clouds at 900 feet AGL
broken clouds at 1500 feet AGL
overcast cloud deck at 3400 feet AGL
Weather: -RA  (light rain)

Forecast for: KPDX (PORTLAND , OR, US)
Text: KPDX 180528Z 1806/1906 00000KT P6SM SCT035
Forecast period: 0600 to 1200 UTC 18 February 2019
Forecast type: FROM: standard forecast or significant change
Winds: calm
Visibility: 6 or more miles 10+ km)
Ceiling: at least 12,000 feet AGL
Clouds: scattered clouds at 3500 feet AGL
Weather: no significant weather forecast for this period
Text: FM181200 00000KT P6SM OVC035
Forecast period: 1200 to 1400 UTC 18 February 2019
Forecast type: FROM: standard forecast or significant change
Winds: calm
Visibility: 6 or more miles 10+ km)
Ceiling: 3500 feet AGL
Clouds: overcast cloud deck at 3500 feet AGL
Weather: no significant weather forecast for this period
Text: FM181400 00000KT P6SM BKN025
Forecast period: 1400 to 1600 UTC 18 February 2019
Forecast type: FROM: standard forecast or significant change
Winds: calm
Visibility: 6 or more miles 10+ km)
Ceiling: 2500 feet AGL
Clouds: broken clouds at 2500 feet AGL
Weather: no significant weather forecast for this period
Text: FM181600 00000KT P6SM OVC035
Forecast period: 1600 UTC 18 February 2019 to 0000 UTC 19 February 2019
Forecast type: FROM: standard forecast or significant change
Winds: calm
Visibility: 6 or more miles 10+ km)
Ceiling: 3500 feet AGL
Clouds: overcast cloud deck at 3500 feet AGL
Weather: no significant weather forecast for this period
Text: FM190000 23004KT P6SM OVC050
Forecast period: 0000 to 0600 UTC 19 February 2019
Forecast type: FROM: standard forecast or significant change
Winds: from the SW (230 degrees) at 5 MPH (4 knots; 2.1 m/s)
Visibility: 6 or more miles 10+ km)
Ceiling: 5000 feet AGL
Clouds: overcast cloud deck at 5000 feet AGL
Weather: no significant weather forecast for this period